Time;durP1;ratioP1;P1;durP2;ratioP2;P2;SDS_P1;SDS_P2;PMS_P1;PMS_P2;Temp;Humidity;BMP_temperature;BMP_pressure;BME280_temperature;BME280_humidity;BME280_pressure;Samples;Min_cycle;Max_cycle;Signal;HPM_P1;HPM_P2
2021/09/24 00:01:45;;;;;;;7.63;3.13;;;;;;;18.58;55.34;101730.56;10462944;28;20040;-80
2021/09/24 00:06:45;;;;;;;3.65;2.78;;;;;;;16.99;55.06;101480.31;10459962;28;20041;-80
2021/09/24 00:11:46;;;;;;;9.18;3.50;;;;;;;18.17;55.52;101680.03;10464686;28;20057;-80
2021/09/24 00:16:46;;;;;;;11.52;3.15;;;;;;;18.20;55.89;101719.84;10463458;28;20106;-80
2021/09/24 00:21:46;;;;;;;5.30;3.17;;;;;;;17.51;56.30;101617.69;10460401;28;20086;-80
2021/09/24 00:26:47;;;;;;;2.60;2.40;;;;;;;18.04;56.17;101699.38;10460964;28;20045;-79
2021/09/24 00:31:47;;;;;;;8.25;3.17;;;;;;;17.64;56.00;101647.69;10442074;28;20067;-80
2021/09/24 00:36:48;;;;;;;6.78;2.45;;;;;;;17.75;57.23;101711.84;10458401;28;20044;-81
2021/09/24 00:41:48;;;;;;;4.28;2.05;;;;;;;16.33;57.34;101485.25;10459153;28;20069;-80
2021/09/24 00:46:48;;;;;;;5.53;2.92;;;;;;;16.23;57.57;101479.44;10457667;28;20087;-80
2021/09/24 00:51:49;;;;;;;6.82;2.78;;;;;;;14.69;58.01;101259.41;10459556;28;20059;-80
2021/09/24 00:56:52;;;;;;;8.38;2.83;;;;;;;16.15;57.21;101464.16;10459159;28;20095;-80
2021/09/24 01:01:52;;;;;;;7.28;2.38;;;;;;;17.47;57.48;101674.81;10442028;28;20036;-80
2021/09/24 01:06:53;;;;;;;4.93;2.85;;;;;;;16.20;57.67;101463.47;10424529;28;20464;-80
2021/09/24 01:11:53;;;;;;;2.63;2.42;;;;;;;17.36;57.56;101653.66;10455943;28;20064;-80
2021/09/24 01:16:55;;;;;;;6.03;2.63;;;;;;;16.44;57.99;101503.69;10456805;28;20179;-80
2021/09/24 01:21:55;;;;;;;13.43;3.55;;;;;;;16.24;57.33;101478.38;10457871;28;20519;-80
2021/09/24 01:26:56;;;;;;;5.80;3.28;;;;;;;17.53;57.67;101684.03;10423216;28;20109;-80
2021/09/24 01:31:57;;;;;;;12.73;2.35;;;;;;;17.51;57.57;101677.94;10457685;28;20044;-80
2021/09/24 01:36:57;;;;;;;4.18;2.63;;;;;;;17.11;57.33;101613.44;10457085;28;20081;-80
2021/09/24 01:41:57;;;;;;;14.10;2.42;;;;;;;17.43;57.74;101655.25;10457205;28;20086;-80
2021/09/24 01:46:58;;;;;;;2.60;2.30;;;;;;;17.38;57.47;101655.09;10457357;28;20029;-80
2021/09/24 01:51:58;;;;;;;6.22;2.35;;;;;;;17.41;57.52;101657.38;10457014;28;20033;-80
2021/09/24 01:56:59;;;;;;;7.13;2.50;;;;;;;17.35;57.38;101649.22;10456976;28;20118;-80
2021/09/24 02:01:59;;;;;;;5.03;3.08;;;;;;;17.36;57.82;101637.22;10447680;28;20140;-80
2021/09/24 02:06:59;;;;;;;2.90;2.33;;;;;;;17.06;57.61;101587.78;10447951;28;20041;-80
2021/09/24 02:12:00;;;;;;;9.13;3.42;;;;;;;17.25;58.04;101627.84;10464301;28;20044;-80
2021/09/24 02:17:01;;;;;;;5.40;3.55;;;;;;;15.77;58.20;101395.91;10463861;28;20061;-80
2021/09/24 02:22:01;;;;;;;3.10;1.98;;;;;;;16.93;57.76;101584.09;10463460;28;20053;-80
2021/09/24 02:27:02;;;;;;;4.63;2.05;;;;;;;16.58;57.81;101526.28;10463476;28;20473;-80
2021/09/24 02:32:03;;;;;;;3.72;1.75;;;;;;;16.12;57.97;101455.56;10446744;28;20052;-79
2021/09/24 02:37:04;;;;;;;4.65;2.20;;;;;;;16.95;58.42;101612.09;10446173;28;20053;-80
2021/09/24 02:42:04;;;;;;;7.03;3.97;;;;;;;16.29;58.46;101484.03;10444892;28;20120;-80
2021/09/24 02:47:08;;;;;;;8.88;2.88;;;;;;;16.83;58.16;101582.94;10462635;28;20415;-80
2021/09/24 02:52:08;;;;;;;5.75;2.60;;;;;;;17.02;58.29;101622.16;10462587;28;20115;-80
2021/09/24 02:57:09;;;;;;;6.25;3.88;;;;;;;17.03;58.55;101616.44;10444732;28;20132;-79
2021/09/24 03:02:09;;;;;;;10.52;3.17;;;;;;;16.46;58.30;101511.66;10445116;28;20039;-80
2021/09/24 03:07:10;;;;;;;7.75;3.72;;;;;;;17.01;58.18;101612.28;10462684;28;20040;-81
2021/09/24 03:12:10;;;;;;;3.80;2.53;;;;;;;17.10;59.27;101628.19;10460406;28;20122;-80
2021/09/24 03:17:10;;;;;;;4.93;2.53;;;;;;;17.35;59.32;101611.72;10460810;28;20036;-80
2021/09/24 03:22:11;;;;;;;4.32;2.58;;;;;;;17.56;58.56;101598.69;10444025;28;20128;-80
2021/09/24 03:27:12;;;;;;;6.63;3.38;;;;;;;16.21;58.51;101366.81;10443927;28;20492;-80
2021/09/24 03:32:13;;;;;;;5.45;3.97;;;;;;;17.75;58.54;101596.81;10460736;28;20035;-80
2021/09/24 03:37:14;;;;;;;7.95;2.85;;;;;;;17.87;58.63;101604.06;10461299;28;20103;-80
2021/09/24 03:42:14;;;;;;;3.25;2.88;;;;;;;15.92;58.24;101267.22;10443393;28;20064;-80
2021/09/24 03:47:15;;;;;;;5.13;2.63;;;;;;;18.03;58.17;101593.56;10461538;28;20053;-81
2021/09/24 03:52:15;;;;;;;3.85;3.05;;;;;;;18.00;58.30;101619.50;10442861;28;20072;-81
2021/09/24 03:57:16;;;;;;;8.02;3.13;;;;;;;18.02;58.56;101594.59;10452810;28;20095;-80
2021/09/24 04:02:16;;;;;;;6.38;3.53;;;;;;;17.80;58.47;101550.38;10442892;28;20560;-81
2021/09/24 04:07:18;;;;;;;3.38;3.10;;;;;;;18.18;58.47;101590.38;10459647;28;20388;-80
2021/09/24 04:12:18;;;;;;;15.00;4.82;;;;;;;17.86;58.52;101517.44;10458070;28;20040;-79
2021/09/24 04:17:20;;;;;;;21.33;6.28;;;;;;;17.81;58.74;101531.00;10442616;28;20500;-80
2021/09/24 04:22:20;;;;;;;9.10;4.88;;;;;;;18.43;59.71;101602.06;10457770;28;20124;-81
2021/09/24 04:27:20;;;;;;;9.52;6.68;;;;;;;18.49;60.77;101556.41;10401398;28;20386;-76
2021/09/24 04:32:21;;;;;;;23.90;10.52;;;;;;;18.74;61.90;101562.59;10458646;28;20041;-78
2021/09/24 04:37:21;;;;;;;16.85;11.25;;;;;;;18.99;61.94;101575.28;10442152;28;20168;-78
2021/09/24 04:42:22;;;;;;;25.77;12.55;;;;;;;19.21;62.11;101587.34;10457264;28;20480;-79
2021/09/24 04:47:22;;;;;;;15.50;11.88;;;;;;;19.49;62.97;101591.28;10459325;28;20183;-77
2021/09/24 04:52:23;;;;;;;23.27;13.38;;;;;;;19.56;63.22;101592.00;10459899;28;20041;-80
2021/09/24 04:57:23;;;;;;;28.35;14.23;;;;;;;19.53;63.81;101576.00;10454281;28;20037;-81
2021/09/24 05:02:23;;;;;;;31.48;13.30;;;;;;;19.63;63.46;101586.38;10459642;28;20051;-80
2021/09/24 05:07:24;;;;;;;20.50;12.35;;;;;;;19.17;64.08;101489.22;10458589;28;20428;-81
2021/09/24 05:12:24;;;;;;;21.70;12.68;;;;;;;19.18;63.50;101482.66;10459049;28;20198;-80
2021/09/24 05:17:25;;;;;;;24.70;14.27;;;;;;;19.76;63.39;101569.66;10459599;28;20210;-80
2021/09/24 05:22:25;;;;;;;30.75;15.38;;;;;;;19.63;64.43;101576.22;10456651;28;20094;-80
2021/09/24 05:27:26;;;;;;;24.23;13.05;;;;;;;19.43;64.59;101520.81;10452519;28;20041;-80
2021/09/24 05:32:26;;;;;;;24.63;16.70;;;;;;;19.55;63.93;101543.59;10462137;28;20511;-80
2021/09/24 05:37:27;;;;;;;24.05;15.95;;;;;;;19.50;65.45;101527.03;10426652;28;20449;-80
2021/09/24 05:42:27;;;;;;;24.75;14.77;;;;;;;19.90;65.00;101575.69;10439560;28;20041;-81
2021/09/24 05:47:27;;;;;;;22.42;16.40;;;;;;;19.23;64.93;101445.16;10457448;28;20507;-80
2021/09/24 05:52:28;;;;;;;29.33;16.98;;;;;;;20.06;65.35;101574.94;10439339;28;20048;-80
2021/09/24 05:57:29;;;;;;;19.88;16.02;;;;;;;19.82;64.86;101534.88;10458044;28;20059;-80
2021/09/24 06:02:29;;;;;;;21.65;15.00;;;;;;;20.15;64.68;101578.13;10458060;28;20037;-80
2021/09/24 06:07:29;;;;;;;21.27;15.73;;;;;;;20.30;64.44;101585.88;10440415;28;20464;-80
2021/09/24 06:12:31;;;;;;;42.08;17.55;;;;;;;20.05;64.29;101567.78;10455369;28;20460;-80
2021/09/24 06:17:32;;;;;;;21.77;15.25;;;;;;;19.96;65.43;101566.47;10456736;28;20120;-80
2021/09/24 06:22:32;;;;;;;23.52;17.23;;;;;;;20.13;64.87;101578.41;10438997;28;20053;-79
2021/09/24 06:27:33;;;;;;;28.65;18.75;;;;;;;20.21;65.49;101583.50;10456357;28;20079;-80
2021/09/24 06:32:34;;;;;;;25.60;16.58;;;;;;;20.24;65.32;101587.66;10438585;28;20136;-80
2021/09/24 06:37:34;;;;;;;31.30;17.02;;;;;;;20.43;64.99;101599.31;10462941;28;20044;-80
2021/09/24 06:42:36;;;;;;;28.20;18.08;;;;;;;20.72;65.34;101604.81;10479500;28;20395;-80
2021/09/24 06:47:37;;;;;;;24.48;16.60;;;;;;;21.00;64.33;101591.00;10503004;28;20048;-80
2021/09/24 06:52:37;;;;;;;17.35;14.18;;;;;;;20.03;63.98;101424.22;10504577;28;20127;-80
2021/09/24 06:57:38;;;;;;;30.75;16.38;;;;;;;21.10;63.63;101524.22;10487597;28;20041;-80
2021/09/24 07:02:38;;;;;;;28.52;13.85;;;;;;;21.69;61.33;101416.16;10488728;28;20032;-80
2021/09/24 07:07:39;;;;;;;15.93;13.02;;;;;;;22.82;60.37;101589.19;10502916;28;20063;-80
2021/09/24 07:12:41;;;;;;;14.70;11.68;;;;;;;22.15;60.83;101536.06;10504376;28;20424;-80
2021/09/24 07:17:41;;;;;;;25.08;12.25;;;;;;;22.25;61.32;101596.06;10503531;28;20037;-80
2021/09/24 07:22:42;;;;;;;24.27;9.35;;;;;;;21.80;61.69;101553.88;10502423;28;20036;-80
2021/09/24 07:27:42;;;;;;;28.23;11.15;;;;;;;22.27;61.19;101596.63;10504062;28;20072;-80
2021/09/24 07:32:43;;;;;;;18.65;11.80;;;;;;;23.27;59.61;101598.97;10485648;28;20492;-79
2021/09/24 07:37:43;;;;;;;22.92;11.10;;;;;;;22.81;59.63;101532.28;10486189;28;20071;-80
2021/09/24 07:42:43;;;;;;;14.68;9.38;;;;;;;22.86;59.62;101574.59;10503200;28;20048;-80
2021/09/24 07:47:44;;;;;;;14.00;9.25;;;;;;;23.69;58.95;101554.72;10500648;28;20561;-80
2021/09/24 07:52:44;;;;;;;18.27;8.77;;;;;;;24.11;57.60;101596.09;10501256;28;20078;-80
2021/09/24 07:57:46;;;;;;;13.77;7.60;;;;;;;24.81;55.38;101541.16;10501154;28;20082;-80
2021/09/24 08:02:46;;;;;;;10.18;7.68;;;;;;;24.10;52.58;101162.81;10502634;28;20396;-80
2021/09/24 08:07:46;;;;;;;8.95;5.90;;;;;;;26.42;50.87;101436.47;10501083;28;20047;-80
2021/09/24 08:12:47;;;;;;;8.73;6.43;;;;;;;26.78;50.72;101571.50;10500422;28;20128;-80
2021/09/24 08:17:47;;;;;;;12.73;5.13;;;;;;;25.47;49.07;101240.78;10485575;28;20060;-80
2021/09/24 08:22:48;;;;;;;14.35;6.53;;;;;;;27.92;48.76;101593.19;10504425;28;20056;-80
2021/09/24 08:27:48;;;;;;;5.00;3.50;;;;;;;27.86;45.57;101555.41;10500202;28;20037;-81
2021/09/24 08:32:49;;;;;;;14.70;5.38;;;;;;;27.71;46.08;101563.91;10482396;28;20032;-80
2021/09/24 08:37:49;;;;;;;4.82;4.50;;;;;;;27.34;46.00;101520.91;10499908;28;20104;-82
2021/09/24 08:42:50;;;;;;;6.45;4.10;;;;;;;26.36;47.47;101581.22;10501099;28;20392;-80
2021/09/24 08:47:51;;;;;;;7.82;4.28;;;;;;;26.78;46.55;101593.72;10501082;28;20036;-79
2021/09/24 08:52:51;;;;;;;5.07;4.50;;;;;;;26.77;45.89;101506.75;10481996;28;20372;-80
2021/09/24 08:57:52;;;;;;;4.60;3.65;;;;;;;27.42;45.31;101595.38;10499336;28;20040;-80
2021/09/24 09:03:07;;;;;;;4.13;3.42;;;;;;;27.62;44.83;101585.97;10481182;28;20028;-81
2021/09/24 09:08:28;;;;;;;5.85;4.45;;;;;;;28.22;44.49;101591.94;10497102;28;20119;-80
2021/09/24 09:13:29;;;;;;;6.15;4.45;;;;;;;28.88;42.68;101606.84;10499771;28;20060;-81
2021/09/24 09:18:33;;;;;;;4.47;3.92;;;;;;;28.96;40.58;101594.97;10500370;28;20063;-80
2021/09/24 09:23:35;;;;;;;7.05;4.03;;;;;;;28.33;40.82;101466.44;10497565;28;20059;-81
2021/09/24 09:28:57;;;;;;;4.22;3.65;;;;;;;29.96;40.58;101588.94;10481018;28;20513;-81
2021/09/24 09:34:00;;;;;;;5.30;3.33;;;;;;;30.17;38.30;101508.31;10499893;28;20414;-81
2021/09/24 09:39:06;;;;;;;6.00;3.47;;;;;;;29.11;40.07;101584.75;10499637;28;20056;-81
2021/09/24 09:44:06;;;;;;;7.03;4.25;;;;;;;27.02;43.02;101580.72;10496956;28;20025;-80
2021/09/24 09:49:09;;;;;;;5.38;4.28;;;;;;;26.55;44.57;101559.19;10499486;28;20114;-80
2021/09/24 09:54:11;;;;;;;5.35;4.28;;;;;;;27.69;43.62;101557.78;10497524;28;20116;-80
2021/09/24 09:59:21;;;;;;;11.65;4.75;;;;;;;28.17;41.69;101552.19;10497890;28;20060;-81
2021/09/24 10:04:35;;;;;;;5.18;4.10;;;;;;;28.48;41.46;101516.38;10498155;28;20029;-81
2021/09/24 10:09:35;;;;;;;11.63;4.38;;;;;;;28.87;40.74;101540.22;10492365;28;20068;-81
2021/09/24 10:14:36;;;;;;;8.98;3.90;;;;;;;29.01;39.98;101545.88;10531020;28;20036;-82
2021/09/24 10:19:36;;;;;;;5.75;3.72;;;;;;;28.67;40.51;101508.78;10501832;28;20036;-80
2021/09/24 10:24:36;;;;;;;3.35;3.15;;;;;;;28.98;40.11;101386.38;10506140;28;20033;-82
2021/09/24 10:29:40;;;;;;;7.22;4.15;;;;;;;30.28;38.17;101529.31;10505949;28;20554;-81
2021/09/24 10:34:54;;;;;;;3.45;3.15;;;;;;;29.79;37.54;101514.19;10504098;28;20024;-81
2021/09/24 10:39:59;;;;;;;5.68;3.15;;;;;;;29.46;37.54;101499.53;10506119;28;20083;-81
2021/09/24 10:45:19;;;;;;;3.92;2.75;;;;;;;29.61;36.60;101546.69;10488492;28;20032;-82
2021/09/24 10:50:28;;;;;;;7.25;2.35;;;;;;;29.34;37.00;101564.22;10497772;28;20418;-80
2021/09/24 10:55:29;;;;;;;2.78;2.10;;;;;;;28.49;37.74;101513.28;10506209;28;20028;-82
2021/09/24 11:00:31;;;;;;;2.20;2.10;;;;;;;28.42;38.06;101509.22;10503488;28;20037;-81
2021/09/24 11:05:52;;;;;;;4.55;1.92;;;;;;;27.90;39.20;101545.31;10486881;28;20456;-81
2021/09/24 11:11:11;;;;;;;11.57;1.95;;;;;;;27.17;40.53;101553.94;10469146;28;20048;-81
2021/09/24 11:16:37;;;;;;;6.00;1.90;;;;;;;26.38;41.46;101543.69;10505566;28;20034;-82
2021/09/24 11:21:38;;;;;;;2.00;1.90;;;;;;;26.14;41.75;101549.13;10500189;28;20082;-81
2021/09/24 11:26:38;;;;;;;2.10;1.85;;;;;;;24.93;40.98;101265.78;10502875;28;20029;-80
2021/09/24 11:31:54;;;;;;;1.42;1.25;;;;;;;26.14;41.95;101531.66;10501785;28;20029;-80
2021/09/24 11:36:58;;;;;;;2.90;1.77;;;;;;;26.08;40.46;101361.53;10503716;28;20045;-81
2021/09/24 11:42:06;;;;;;;1.63;1.52;;;;;;;27.54;39.28;101531.84;10468827;28;20040;-80
2021/09/24 11:47:22;;;;;;;1.30;1.30;;;;;;;28.00;37.62;101522.06;10502048;28;20036;-81
2021/09/24 11:52:24;;;;;;;1.50;1.42;;;;;;;27.48;37.50;101388.38;10484547;28;20081;-81
2021/09/24 11:57:24;;;;;;;8.20;2.03;;;;;;;27.92;37.47;101550.56;10501311;28;20032;-82
2021/09/24 12:02:24;;;;;;;4.13;1.35;;;;;;;27.66;38.24;101517.47;10501909;28;20032;-81
2021/09/24 12:07:25;;;;;;;8.48;1.38;;;;;;;27.66;37.97;101511.91;10483620;28;20040;-83
2021/09/24 12:12:26;;;;;;;2.53;1.55;;;;;;;28.38;37.46;101508.13;10500078;28;20068;-81
2021/09/24 12:17:28;;;;;;;6.53;2.08;;;;;;;29.28;36.60;101506.84;10500506;28;20040;-81
2021/09/24 12:22:29;;;;;;;2.15;1.15;;;;;;;28.84;35.85;101512.97;10483470;28;20040;-81
2021/09/24 12:27:31;;;;;;;9.02;1.58;;;;;;;29.22;36.31;101494.16;10482563;28;20380;-82
2021/09/24 12:32:31;;;;;;;10.90;1.92;;;;;;;29.63;35.17;101499.75;10482494;28;20485;-82
2021/09/24 12:37:34;;;;;;;8.82;2.65;;;;;;;29.15;35.43;101522.44;10499618;28;20095;-81
2021/09/24 12:42:43;;;;;;;2.50;1.48;;;;;;;28.18;36.67;101509.28;10499150;28;20064;-81
2021/09/24 12:47:43;;;;;;;3.05;2.05;;;;;;;28.30;37.43;101492.94;10482894;28;20111;-81
2021/09/24 12:52:44;;;;;;;4.35;3.25;;;;;;;28.66;36.94;101456.16;10501047;28;20135;-81
2021/09/24 12:57:44;;;;;;;1.65;1.55;;;;;;;28.66;37.14;101503.53;10502497;28;20028;-80
2021/09/24 13:02:44;;;;;;;4.22;2.03;;;;;;;29.23;37.11;101501.41;10499968;28;20033;-81
2021/09/24 13:07:45;;;;;;;7.57;2.65;;;;;;;28.52;36.21;101400.38;10498784;28;20036;-81
2021/09/24 13:12:45;;;;;;;5.68;2.45;;;;;;;27.12;38.96;101440.78;10498601;28;20040;-81
2021/09/24 13:17:46;;;;;;;4.72;3.13;;;;;;;27.25;39.70;101517.13;10498937;28;20040;-81
2021/09/24 13:22:46;;;;;;;2.80;2.55;;;;;;;27.50;39.75;101474.28;10480771;28;20036;-81
2021/09/24 13:27:47;;;;;;;3.78;2.65;;;;;;;27.06;39.36;101361.38;10481170;28;20028;-81
2021/09/24 13:32:47;;;;;;;14.13;2.33;;;;;;;27.37;39.46;101498.09;10481277;28;20041;-81
2021/09/24 13:37:47;;;;;;;4.22;1.98;;;;;;;26.69;39.48;101349.03;10498185;28;20106;-81
2021/09/24 13:42:48;;;;;;;10.18;2.88;;;;;;;26.74;40.41;101473.16;10497683;28;20037;-81
2021/09/24 13:47:48;;;;;;;8.68;2.22;;;;;;;26.71;40.80;101457.91;10497204;28;20045;-81
2021/09/24 13:52:49;;;;;;;3.30;2.13;;;;;;;27.13;40.35;101487.78;10481407;28;20490;-81
2021/09/24 13:57:49;;;;;;;6.43;1.65;;;;;;;26.82;40.31;101464.19;10505052;28;20046;-82
2021/09/24 14:02:50;;;;;;;2.28;1.77;;;;;;;26.88;40.51;101471.34;10506984;28;20041;-81
2021/09/24 14:07:51;;;;;;;6.00;2.15;;;;;;;27.02;40.12;101477.88;10506469;28;20032;-81
2021/09/24 14:12:53;;;;;;;1.83;1.65;;;;;;;25.66;40.12;101271.41;10504220;28;20028;-81
2021/09/24 14:17:53;;;;;;;4.95;1.67;;;;;;;26.57;40.69;101435.53;10504580;28;20033;-81
2021/09/24 14:22:54;;;;;;;5.75;1.92;;;;;;;25.93;40.14;101345.81;10505982;28;20037;-81
2021/09/24 14:27:54;;;;;;;4.68;1.30;;;;;;;26.19;40.71;101438.03;10489240;28;20033;-81
2021/09/24 14:32:55;;;;;;;4.80;1.25;;;;;;;26.27;40.15;101442.16;10505660;28;20496;-81
2021/09/24 14:37:56;;;;;;;3.60;1.70;;;;;;;26.52;39.75;101426.44;10490125;28;20049;-81
2021/09/24 14:42:57;;;;;;;5.70;1.67;;;;;;;26.06;40.56;101424.81;10509370;28;20391;-81
2021/09/24 14:47:57;;;;;;;9.68;1.73;;;;;;;25.56;40.62;101334.44;10503769;28;20040;-82
2021/09/24 14:52:58;;;;;;;1.00;1.00;;;;;;;25.44;41.58;101432.66;10487203;28;20036;-81
2021/09/24 14:57:58;;;;;;;2.72;1.30;;;;;;;25.10;42.79;101426.94;10504083;28;20128;-82
2021/09/24 15:02:58;;;;;;;3.92;2.00;;;;;;;23.77;44.49;101388.28;10505397;28;20036;-80
2021/09/24 15:07:59;;;;;;;7.35;2.35;;;;;;;21.38;47.21;101096.25;10503167;28;20131;-81
2021/09/24 15:12:59;;;;;;;8.75;2.65;;;;;;;23.19;47.65;101428.97;10504628;28;20038;-81
2021/09/24 15:18:00;;;;;;;7.65;2.20;;;;;;;23.25;48.22;101427.91;10502859;28;20068;-80
2021/09/24 15:23:00;;;;;;;2.55;2.28;;;;;;;22.77;50.04;101424.28;10504543;28;20071;-81
2021/09/24 15:28:00;;;;;;;5.10;2.05;;;;;;;23.07;49.61;101451.31;10501886;28;20465;-81
2021/09/24 15:33:01;;;;;;;9.10;1.88;;;;;;;23.04;49.63;101449.09;10502446;28;20063;-82
2021/09/24 15:38:02;;;;;;;2.97;2.03;;;;;;;22.78;50.35;101439.75;10502148;28;20091;-81
2021/09/24 15:43:03;;;;;;;3.17;2.15;;;;;;;22.79;50.37;101441.44;10504709;28;20040;-81
2021/09/24 15:48:03;;;;;;;3.60;1.83;;;;;;;20.92;49.83;101178.44;10503824;28;20032;-80
2021/09/24 15:53:04;;;;;;;1.42;1.33;;;;;;;22.49;49.96;101437.38;10503027;28;20037;-81
2021/09/24 15:58:04;;;;;;;3.33;1.70;;;;;;;22.06;49.92;101411.56;10484965;28;20124;-82
2021/09/24 16:03:05;;;;;;;4.00;2.22;;;;;;;22.08;50.22;101438.91;10501303;28;20041;-81
2021/09/24 16:08:05;;;;;;;2.92;1.70;;;;;;;20.91;50.79;101278.63;10503718;28;20048;-81
2021/09/24 16:13:05;;;;;;;9.80;2.08;;;;;;;22.20;50.18;101441.50;10484582;28;20076;-81
2021/09/24 16:18:06;;;;;;;1.67;1.45;;;;;;;22.26;50.21;101434.94;10502340;28;20170;-81
2021/09/24 16:23:06;;;;;;;6.53;2.50;;;;;;;22.36;50.01;101440.56;10506656;28;20041;-80
2021/09/24 16:28:07;;;;;;;3.33;1.42;;;;;;;22.29;50.95;101442.72;10485395;28;20037;-81
2021/09/24 16:33:07;;;;;;;8.50;2.25;;;;;;;22.08;51.25;101429.78;10501114;28;20074;-80
2021/09/24 16:38:09;;;;;;;2.70;2.28;;;;;;;21.13;50.45;101270.34;10499689;28;20080;-80
2021/09/24 16:43:11;;;;;;;3.13;2.22;;;;;;;21.90;51.55;101401.50;10499931;28;20395;-81
2021/09/24 16:48:12;;;;;;;4.45;2.25;;;;;;;22.04;51.20;101429.47;10500746;28;20086;-82
2021/09/24 16:53:12;;;;;;;4.13;2.15;;;;;;;22.07;51.27;101434.47;10498958;28;20063;-81
2021/09/24 16:58:13;;;;;;;2.78;2.05;;;;;;;21.56;50.82;101354.00;10498979;28;20070;-81
2021/09/24 17:03:13;;;;;;;9.30;2.45;;;;;;;22.28;50.02;101441.06;10500908;28;20037;-81
2021/09/24 17:08:13;;;;;;;5.28;2.33;;;;;;;21.97;50.24;101404.03;10499827;28;20109;-81
2021/09/24 17:13:14;;;;;;;8.82;2.35;;;;;;;22.16;50.58;101451.41;10499911;28;20032;-81
2021/09/24 17:18:14;;;;;;;6.75;2.67;;;;;;;22.20;50.75;101449.78;10481848;28;20039;-81
2021/09/24 17:23:15;;;;;;;18.45;2.40;;;;;;;22.04;51.33;101446.03;10499402;28;20033;-81
2021/09/24 17:28:15;;;;;;;13.27;7.00;;;;;;;21.73;51.78;101426.44;10499595;28;20036;-80
2021/09/24 17:33:15;;;;;;;12.55;5.35;;;;;;;21.87;51.86;101450.84;10498723;28;20036;-81
2021/09/24 17:38:16;;;;;;;7.93;2.15;;;;;;;21.75;52.18;101420.63;10497579;28;20068;-80
2021/09/24 17:43:18;;;;;;;7.82;2.95;;;;;;;21.51;52.09;101392.56;10498220;28;20048;-81
2021/09/24 17:48:19;;;;;;;2.25;2.05;;;;;;;21.69;51.96;101427.19;10498495;28;20025;-81
2021/09/24 17:53:19;;;;;;;5.25;2.80;;;;;;;22.02;51.34;101454.56;10497763;28;20036;-80
2021/09/24 17:58:19;;;;;;;3.53;1.73;;;;;;;21.93;51.35;101461.66;10497803;28;20036;-82
2021/09/24 18:03:20;;;;;;;3.80;1.67;;;;;;;21.64;51.67;101414.19;10498243;28;20036;-81
2021/09/24 18:08:20;;;;;;;2.50;1.50;;;;;;;21.96;51.63;101477.69;10479769;28;20037;-81
2021/09/24 18:13:21;;;;;;;4.57;2.25;;;;;;;20.96;51.53;101306.22;10497083;28;20463;-82
2021/09/24 18:18:21;;;;;;;1.98;1.80;;;;;;;21.42;52.01;101378.41;10496321;28;20040;-81
2021/09/24 18:23:22;;;;;;;2.00;1.65;;;;;;;21.83;52.61;101483.59;10497355;28;20056;-80
2021/09/24 18:28:22;;;;;;;1.75;1.20;;;;;;;21.77;52.82;101479.13;10498482;28;20028;-81
2021/09/24 18:33:23;;;;;;;17.50;2.70;;;;;;;21.53;52.43;101448.22;10497899;28;20714;-81
2021/09/24 18:38:23;;;;;;;8.57;5.70;;;;;;;21.90;52.41;101486.16;10497354;28;20209;-82
2021/09/24 18:43:24;;;;;;;4.53;2.67;;;;;;;21.71;52.66;101458.09;10501660;28;20070;-80
2021/09/24 18:48:24;;;;;;;2.95;2.05;;;;;;;21.69;53.16;101493.34;10503253;28;20219;-80
2021/09/24 18:53:24;;;;;;;6.25;2.35;;;;;;;21.75;53.04;101500.59;10504065;28;20047;-80
2021/09/24 18:58:26;;;;;;;3.90;2.80;;;;;;;21.97;52.47;101490.38;10503884;28;20365;-80
2021/09/24 19:03:26;;;;;;;5.88;2.42;;;;;;;19.42;52.07;101083.28;10487043;28;20051;-80
2021/09/24 19:08:27;;;;;;;4.10;1.98;;;;;;;21.87;52.65;101498.53;10505062;28;20040;-82
2021/09/24 19:13:27;;;;;;;4.50;2.13;;;;;;;21.75;52.55;101481.28;10502472;28;20477;-81
2021/09/24 19:18:30;;;;;;;6.85;2.80;;;;;;;21.78;52.63;101484.34;10504099;28;20064;-80
2021/09/24 19:23:30;;;;;;;6.53;2.67;;;;;;;20.72;52.63;101324.09;10503016;28;20048;-81
2021/09/24 19:28:31;;;;;;;8.38;2.53;;;;;;;21.89;52.86;101515.66;10501705;28;20037;-80
2021/09/24 19:33:31;;;;;;;2.42;2.08;;;;;;;21.76;52.94;101499.50;10502690;28;20040;-81
2021/09/24 19:38:32;;;;;;;6.13;2.30;;;;;;;21.70;53.39;101503.31;10501240;28;20056;-80
2021/09/24 19:43:32;;;;;;;7.57;1.92;;;;;;;21.82;53.36;101528.78;10500844;28;20058;-80
2021/09/24 19:48:33;;;;;;;8.98;2.72;;;;;;;21.85;53.62;101531.03;10502254;28;20107;-81
2021/09/24 19:53:33;;;;;;;6.70;3.10;;;;;;;21.46;54.66;101525.59;10501340;28;20047;-80
2021/09/24 19:58:34;;;;;;;8.52;3.03;;;;;;;20.96;54.46;101427.34;10484155;28;20028;-80
2021/09/24 20:03:34;;;;;;;9.55;3.92;;;;;;;21.69;54.51;101534.69;10500444;28;20115;-79
2021/09/24 20:08:35;;;;;;;6.28;2.30;;;;;;;19.49;54.30;101224.00;10443298;28;20096;-80
2021/09/24 20:13:35;;;;;;;4.80;2.08;;;;;;;21.16;54.21;101432.31;10500431;28;20032;-80
2021/09/24 20:18:35;;;;;;;3.67;2.95;;;;;;;20.97;54.48;101419.94;10501719;28;20448;-80
2021/09/24 20:23:36;;;;;;;4.38;2.63;;;;;;;21.38;55.07;101503.16;10499642;28;20032;-80
2021/09/24 20:28:36;;;;;;;6.80;2.60;;;;;;;20.10;54.79;101290.19;10482959;28;20128;-79
2021/09/24 20:33:37;;;;;;;5.97;3.42;;;;;;;21.42;55.58;101532.69;10501060;28;20056;-80
2021/09/24 20:38:37;;;;;;;3.30;2.45;;;;;;;21.46;55.47;101516.50;10499551;28;20076;-80
2021/09/24 20:43:37;;;;;;;7.60;3.95;;;;;;;21.43;55.73;101512.31;10500247;28;20392;-80
2021/09/24 20:48:38;;;;;;;10.50;4.40;;;;;;;20.58;56.00;101379.50;10482635;28;20043;-80
2021/09/24 20:53:38;;;;;;;6.68;1.92;;;;;;;20.51;55.95;101395.31;10500049;28;20025;-80
2021/09/24 20:58:39;;;;;;;13.13;3.05;;;;;;;20.50;55.99;101388.13;10499413;28;20032;-80
2021/09/24 21:03:39;;;;;;;7.53;2.85;;;;;;;21.44;56.06;101518.66;10483502;28;20041;-82
2021/09/24 21:08:39;;;;;;;5.38;2.88;;;;;;;21.62;55.28;101525.78;10499715;28;20036;-79
2021/09/24 21:13:40;;;;;;;5.03;2.95;;;;;;;20.89;55.56;101441.31;10498970;28;20079;-81
2021/09/24 21:18:40;;;;;;;6.03;3.83;;;;;;;20.63;55.73;101393.31;10481031;28;20369;-80
2021/09/24 21:23:41;;;;;;;11.70;4.60;;;;;;;21.24;56.35;101506.25;10499654;28;20037;-80
2021/09/24 21:28:41;;;;;;;9.18;4.10;;;;;;;20.06;56.72;101376.97;10499580;28;20143;-81
2021/09/24 21:33:42;;;;;;;4.88;3.35;;;;;;;20.87;57.26;101483.97;10500429;28;20124;-80
2021/09/24 21:38:43;;;;;;;10.50;3.22;;;;;;;20.79;56.22;101427.41;10498287;28;20136;-79
2021/09/24 21:43:43;;;;;;;10.18;3.00;;;;;;;21.33;56.55;101509.41;10498646;28;20056;-80
2021/09/24 21:48:44;;;;;;;3.70;2.50;;;;;;;21.02;56.33;101472.31;10497275;28;20083;-80
2021/09/24 21:53:44;;;;;;;10.90;3.35;;;;;;;20.38;57.12;101388.22;10496532;28;20040;-80
2021/09/24 21:58:45;;;;;;;15.50;3.00;;;;;;;21.04;57.70;101498.53;10498802;28;20041;-80
2021/09/24 22:03:45;;;;;;;19.80;3.08;;;;;;;20.88;57.13;101461.66;10480539;28;20033;-79
2021/09/24 22:08:47;;;;;;;5.22;2.50;;;;;;;21.26;56.89;101504.06;10497946;28;20040;-79
2021/09/24 22:13:48;;;;;;;11.70;3.97;;;;;;;21.01;57.80;101500.94;10482203;28;20127;-80
2021/09/24 22:18:48;;;;;;;9.95;3.35;;;;;;;20.89;58.23;101501.03;10505322;28;20119;-79
2021/09/24 22:23:49;;;;;;;12.52;3.00;;;;;;;20.96;57.52;101531.97;10507655;28;20119;-80
2021/09/24 22:28:49;;;;;;;6.95;2.95;;;;;;;20.96;58.00;101495.34;10489665;28;20613;-79
2021/09/24 22:33:50;;;;;;;12.23;3.13;;;;;;;20.87;57.56;101468.28;10506487;28;20434;-79
2021/09/24 22:38:50;;;;;;;11.82;3.35;;;;;;;20.91;57.28;101496.13;10505113;28;20091;-79
2021/09/24 22:43:51;;;;;;;12.40;4.00;;;;;;;21.09;57.42;101495.84;10504300;28;20036;-79
2021/09/24 22:48:51;;;;;;;14.68;4.93;;;;;;;20.93;57.44;101482.09;10504624;28;20388;-80
2021/09/24 22:53:51;;;;;;;12.25;4.78;;;;;;;20.41;57.82;101426.22;10487843;28;20036;-80
2021/09/24 22:58:52;;;;;;;3.17;2.80;;;;;;;20.86;58.28;101496.03;10503732;28;20074;-80